Time;durP1;ratioP1;P1;durP2;ratioP2;P2;SDS_P1;SDS_P2;PMS_P1;PMS_P2;Temp;Humidity;BMP_temperature;BMP_pressure;BME280_temperature;BME280_humidity;BME280_pressure;Samples;Min_cycle;Max_cycle;Signal;HPM_P1;HPM_P2
2021/11/21 00:02:18;;;;;;;664.40;313.17;;;;;;;;;;5031784;28;20178;-80
2021/11/21 00:04:44;;;;;;;140.25;65.93;;;;;;;;;;5042097;28;20462;-78
2021/11/21 00:07:10;;;;;;;45.03;30.10;;;;;;;;;;5051633;28;20189;-81
2021/11/21 00:09:36;;;;;;;42.28;27.15;;;;;;;;;;5049561;28;20181;-81
2021/11/21 00:12:02;;;;;;;38.73;25.90;;;;;;;;;;5049766;28;20598;-81
2021/11/21 00:14:28;;;;;;;42.60;25.85;;;;;;;;;;5051321;28;20424;-80
2021/11/21 00:16:57;;;;;;;42.70;26.20;;;;;;;;;;5051050;28;20294;-80
2021/11/21 00:19:23;;;;;;;40.13;25.05;;;;;;;;;;5050681;28;20426;-81
2021/11/21 00:21:52;;;;;;;39.47;24.10;;;;;;;;;;5049683;28;20701;-81
2021/11/21 00:24:18;;;;;;;40.60;26.85;;;;;;;;;;5050329;28;20255;-80
2021/11/21 00:26:44;;;;;;;42.05;26.63;;;;;;;;;;5050461;28;20520;-80
2021/11/21 00:29:10;;;;;;;44.90;27.42;;;;;;;;;;5049986;28;20291;-80
2021/11/21 00:31:36;;;;;;;39.92;27.88;;;;;;;;;;5051005;28;20202;-80
2021/11/21 00:34:02;;;;;;;46.50;27.92;;;;;;;;;;5049403;28;20196;-80
2021/11/21 00:36:28;;;;;;;41.10;27.40;;;;;;;;;;5051035;28;20323;-79
2021/11/21 00:38:54;;;;;;;45.10;27.53;;;;;;;;;;5051368;28;20701;-80
2021/11/21 00:41:20;;;;;;;43.72;27.45;;;;;;;;;;5049613;28;20529;-80
2021/11/21 00:43:46;;;;;;;44.00;26.50;;;;;;;;;;5051420;28;20213;-80
2021/11/21 00:46:12;;;;;;;45.10;27.42;;;;;;;;;;5050903;28;21142;-80
2021/11/21 00:48:38;;;;;;;46.00;27.23;;;;;;;;;;5049355;28;20247;-79
2021/11/21 00:51:05;;;;;;;43.38;28.42;;;;;;;;;;5050261;28;20204;-81
2021/11/21 00:53:32;;;;;;;42.92;25.88;;;;;;;;;;5051053;28;20674;-79
2021/11/21 00:56:05;;;;;;;40.92;25.35;;;;;;;;;;5050220;28;20267;-80
2021/11/21 00:58:32;;;;;;;40.95;26.92;;;;;;;;;;5049923;28;20627;-80
2021/11/21 01:00:58;;;;;;;43.03;27.83;;;;;;;;;;5048868;28;20216;-80
2021/11/21 01:03:25;;;;;;;44.25;29.48;;;;;;;;;;5045565;28;20185;-79
2021/11/21 01:05:53;;;;;;;41.58;25.88;;;;;;;;;;5044705;28;20271;-78
2021/11/21 01:08:19;;;;;;;40.65;25.33;;;;;;;;;;5054686;28;20178;-80
2021/11/21 01:10:46;;;;;;;42.53;26.38;;;;;;;;;;5052953;28;21030;-81
2021/11/21 01:13:13;;;;;;;40.65;27.52;;;;;;;;;;5053143;28;20189;-80
2021/11/21 01:15:39;;;;;;;40.50;24.35;;;;;;;;;;5052715;28;20192;-81
2021/11/21 01:18:05;;;;;;;37.67;25.07;;;;;;;;;;5053895;28;20571;-78
2021/11/21 01:20:32;;;;;;;41.85;26.48;;;;;;;;;;5053463;28;20462;-80
2021/11/21 01:22:58;;;;;;;41.42;25.20;;;;;;;;;;5054357;28;20829;-81
2021/11/21 01:25:25;;;;;;;42.30;26.10;;;;;;;;;;5053097;28;20269;-80
2021/11/21 01:27:51;;;;;;;35.53;24.55;;;;;;;;;;5054264;28;20431;-80
2021/11/21 01:30:18;;;;;;;36.00;25.42;;;;;;;;;;5053526;28;20223;-80
2021/11/21 01:32:45;;;;;;;38.90;23.98;;;;;;;;;;5053495;28;20189;-79
2021/11/21 01:35:11;;;;;;;31.30;23.50;;;;;;;;;;5052386;28;20580;-78
2021/11/21 01:37:38;;;;;;;36.47;23.90;;;;;;;;;;5053882;28;20190;-81
2021/11/21 01:40:05;;;;;;;32.55;23.05;;;;;;;;;;5052524;28;20212;-80
2021/11/21 01:42:31;;;;;;;34.90;23.90;;;;;;;;;;5053888;28;20188;-81
2021/11/21 01:44:57;;;;;;;37.47;24.58;;;;;;;;;;5053710;28;20657;-79
2021/11/21 01:47:23;;;;;;;37.47;22.75;;;;;;;;;;5053097;28;20582;-79
2021/11/21 01:49:49;;;;;;;41.20;25.30;;;;;;;;;;5053320;28;20197;-79
2021/11/21 01:52:15;;;;;;;33.55;23.38;;;;;;;;;;5053587;28;20424;-79
2021/11/21 01:54:41;;;;;;;39.70;24.87;;;;;;;;;;5035368;28;20556;-79
2021/11/21 01:57:07;;;;;;;36.90;24.77;;;;;;;;;;5053460;28;20424;-79
2021/11/21 01:59:34;;;;;;;41.63;25.73;;;;;;;;;;5053415;28;20193;-80
2021/11/21 02:02:00;;;;;;;39.55;25.85;;;;;;;;;;5052602;28;20463;-79
2021/11/21 02:04:26;;;;;;;36.90;24.30;;;;;;;;;;5048692;28;20197;-79
2021/11/21 02:06:52;;;;;;;36.60;22.02;;;;;;;;;;5036737;28;20464;-80
2021/11/21 02:09:18;;;;;;;35.63;22.80;;;;;;;;;;5031703;28;20257;-80
2021/11/21 02:11:44;;;;;;;36.97;23.07;;;;;;;;;;5031737;28;20975;-80
2021/11/21 02:14:10;;;;;;;36.22;22.27;;;;;;;;;;5033635;28;20456;-81
2021/11/21 02:16:36;;;;;;;35.22;23.45;;;;;;;;;;5032385;28;20570;-80
2021/11/21 02:19:02;;;;;;;40.80;23.67;;;;;;;;;;5033243;28;20196;-80
2021/11/21 02:21:29;;;;;;;38.75;24.40;;;;;;;;;;5033534;28;20689;-79
2021/11/21 02:23:55;;;;;;;35.20;22.48;;;;;;;;;;5034482;28;20261;-80
2021/11/21 02:26:21;;;;;;;37.00;24.23;;;;;;;;;;5034686;28;20522;-79
2021/11/21 02:28:48;;;;;;;40.15;25.20;;;;;;;;;;5033282;28;20178;-80
2021/11/21 02:31:14;;;;;;;35.03;22.95;;;;;;;;;;5034166;28;20312;-79
2021/11/21 02:33:41;;;;;;;35.40;21.42;;;;;;;;;;5034402;28;20178;-79
2021/11/21 02:36:08;;;;;;;32.45;21.73;;;;;;;;;;5034415;28;20178;-79
2021/11/21 02:38:35;;;;;;;35.40;23.30;;;;;;;;;;5034307;28;20264;-79
2021/11/21 02:41:02;;;;;;;32.45;22.75;;;;;;;;;;5033992;28;20205;-79
2021/11/21 02:43:28;;;;;;;34.88;23.55;;;;;;;;;;5032990;28;20653;-79
2021/11/21 02:45:55;;;;;;;37.92;24.08;;;;;;;;;;5034158;28;20166;-80
2021/11/21 02:48:22;;;;;;;39.42;22.58;;;;;;;;;;5032918;28;20182;-79
2021/11/21 02:50:49;;;;;;;36.55;22.90;;;;;;;;;;5033741;28;20200;-79
2021/11/21 02:53:15;;;;;;;39.05;22.55;;;;;;;;;;5032796;28;20246;-79
2021/11/21 02:55:41;;;;;;;34.08;23.30;;;;;;;;;;5034022;28;20174;-79
2021/11/21 02:58:07;;;;;;;41.55;24.08;;;;;;;;;;5032607;28;20553;-79
2021/11/21 03:00:34;;;;;;;34.72;21.85;;;;;;;;;;5032297;28;20217;-79
2021/11/21 03:03:01;;;;;;;34.55;23.02;;;;;;;;;;5033915;28;20205;-79
2021/11/21 03:05:27;;;;;;;39.05;25.55;;;;;;;;;;5032748;28;20170;-79
2021/11/21 03:07:53;;;;;;;40.55;23.70;;;;;;;;;;5033959;28;20289;-79
2021/11/21 03:10:20;;;;;;;36.97;24.63;;;;;;;;;;5033200;28;20248;-79
2021/11/21 03:12:54;;;;;;;42.22;23.75;;;;;;;;;;5033862;28;20470;-79
2021/11/21 03:15:20;;;;;;;40.10;23.90;;;;;;;;;;5033798;28;20183;-79
2021/11/21 03:17:46;;;;;;;42.30;23.77;;;;;;;;;;5033574;28;20616;-79
2021/11/21 03:20:15;;;;;;;40.73;22.87;;;;;;;;;;5033081;28;20238;-79
2021/11/21 03:22:42;;;;;;;47.22;25.77;;;;;;;;;;5033562;28;20421;-79
2021/11/21 03:25:09;;;;;;;38.92;23.33;;;;;;;;;;5033574;28;20571;-79
2021/11/21 03:27:35;;;;;;;39.80;23.42;;;;;;;;;;5033568;28;20170;-79
2021/11/21 03:30:01;;;;;;;41.75;24.52;;;;;;;;;;5033098;28;20190;-79
2021/11/21 03:32:27;;;;;;;39.42;22.20;;;;;;;;;;5033190;28;20170;-79
2021/11/21 03:34:53;;;;;;;40.10;23.58;;;;;;;;;;5033324;28;20550;-79
2021/11/21 03:37:19;;;;;;;41.33;22.90;;;;;;;;;;5032148;28;20182;-79
2021/11/21 03:39:45;;;;;;;44.97;24.53;;;;;;;;;;5032869;28;20457;-79
2021/11/21 03:42:11;;;;;;;40.42;24.08;;;;;;;;;;5031934;28;20787;-79
2021/11/21 03:44:37;;;;;;;51.38;26.88;;;;;;;;;;5033050;28;20260;-79
2021/11/21 03:47:04;;;;;;;40.17;22.58;;;;;;;;;;5033210;28;20183;-79
2021/11/21 03:49:30;;;;;;;39.33;23.00;;;;;;;;;;5032839;28;20184;-78
2021/11/21 03:51:56;;;;;;;39.20;23.50;;;;;;;;;;5033323;28;20187;-79
2021/11/21 03:54:22;;;;;;;49.17;24.63;;;;;;;;;;5033416;28;20545;-80
2021/11/21 03:56:48;;;;;;;44.92;22.85;;;;;;;;;;5033116;28;20413;-79
2021/11/21 03:59:14;;;;;;;42.83;25.70;;;;;;;;;;5032842;28;20281;-80
2021/11/21 04:01:40;;;;;;;39.95;21.50;;;;;;;;;;5031675;28;20811;-80
2021/11/21 04:04:06;;;;;;;40.22;20.58;;;;;;;;;;5033117;28;20316;-81
2021/11/21 04:06:33;;;;;;;40.70;21.75;;;;;;;;;;5033087;28;20309;-79
2021/11/21 04:08:59;;;;;;;41.53;21.55;;;;;;;;;;5032933;28;20977;-79
2021/11/21 04:11:25;;;;;;;40.42;21.50;;;;;;;;;;5031237;28;20197;-79
2021/11/21 04:13:51;;;;;;;41.88;21.70;;;;;;;;;;5032894;28;20653;-80
2021/11/21 04:16:17;;;;;;;34.00;19.00;;;;;;;;;;5032819;28;20183;-81
2021/11/21 04:18:43;;;;;;;40.00;22.40;;;;;;;;;;5033183;28;20695;-79
2021/11/21 04:21:09;;;;;;;42.78;22.20;;;;;;;;;;5032663;28;20217;-80
2021/11/21 04:23:36;;;;;;;40.03;20.92;;;;;;;;;;5033133;28;20184;-80
2021/11/21 04:26:02;;;;;;;38.17;20.08;;;;;;;;;;5031622;28;20239;-80
2021/11/21 04:28:28;;;;;;;38.83;20.80;;;;;;;;;;5033021;28;20181;-79
2021/11/21 04:30:55;;;;;;;40.35;20.60;;;;;;;;;;5032442;28;20233;-80
2021/11/21 04:33:22;;;;;;;36.25;19.40;;;;;;;;;;5032818;28;20254;-79
2021/11/21 04:35:48;;;;;;;44.15;21.27;;;;;;;;;;5032793;28;20588;-81
2021/11/21 04:38:14;;;;;;;38.47;21.30;;;;;;;;;;5031451;28;20181;-81
2021/11/21 04:40:40;;;;;;;40.17;20.42;;;;;;;;;;5032345;28;20620;-79
2021/11/21 04:43:06;;;;;;;38.55;19.63;;;;;;;;;;5036364;28;20189;-80
2021/11/21 04:45:32;;;;;;;37.72;19.27;;;;;;;;;;5035355;28;20181;-81
2021/11/21 04:47:58;;;;;;;47.95;22.23;;;;;;;;;;5035247;28;20174;-80
2021/11/21 04:50:24;;;;;;;37.17;18.67;;;;;;;;;;5034741;28;20205;-81
2021/11/21 04:52:50;;;;;;;34.83;19.83;;;;;;;;;;5036345;28;20413;-80
2021/11/21 04:55:16;;;;;;;30.10;19.38;;;;;;;;;;5036220;28;20308;-80
2021/11/21 04:57:42;;;;;;;32.13;18.43;;;;;;;;;;5036308;28;20658;-80
2021/11/21 05:00:15;;;;;;;28.45;17.63;;;;;;;;;;5035766;28;20469;-80
2021/11/21 05:02:41;;;;;;;29.40;17.35;;;;;;;;;;5036365;28;20186;-80
2021/11/21 05:05:08;;;;;;;28.83;16.17;;;;;;;;;;5036061;28;20166;-80
2021/11/21 05:07:34;;;;;;;29.80;17.52;;;;;;;;;;5036066;28;20249;-80
2021/11/21 05:10:00;;;;;;;31.35;16.98;;;;;;;;;;5035613;28;20233;-80
2021/11/21 05:12:26;;;;;;;28.33;15.83;;;;;;;;;;5036158;28;20226;-81
2021/11/21 05:14:54;;;;;;;32.78;18.45;;;;;;;;;;5036171;28;20503;-80
2021/11/21 05:17:21;;;;;;;28.50;17.40;;;;;;;;;;5034461;28;20198;-81
2021/11/21 05:19:47;;;;;;;32.92;17.90;;;;;;;;;;5035441;28;20224;-81
2021/11/21 05:22:13;;;;;;;29.03;15.60;;;;;;;;;;5034565;28;20187;-79
2021/11/21 05:24:39;;;;;;;24.70;15.88;;;;;;;;;;5034755;28;20408;-80
2021/11/21 05:27:05;;;;;;;27.75;16.58;;;;;;;;;;5035769;28;20171;-80
2021/11/21 05:29:31;;;;;;;27.63;15.82;;;;;;;;;;5035291;28;20254;-80
2021/11/21 05:31:57;;;;;;;25.60;16.35;;;;;;;;;;5034433;28;20208;-80
2021/11/21 05:34:23;;;;;;;26.33;15.20;;;;;;;;;;5035679;28;20193;-80
2021/11/21 05:36:49;;;;;;;24.52;14.93;;;;;;;;;;5035705;28;20177;-80
2021/11/21 05:39:16;;;;;;;26.10;16.30;;;;;;;;;;5035039;28;20665;-80
2021/11/21 05:41:42;;;;;;;25.48;14.15;;;;;;;;;;5035203;28;20467;-81
2021/11/21 05:44:08;;;;;;;23.00;13.98;;;;;;;;;;5034436;28;20162;-80
2021/11/21 05:46:35;;;;;;;28.02;15.20;;;;;;;;;;5035366;28;20178;-80
2021/11/21 05:49:01;;;;;;;21.25;12.80;;;;;;;;;;5035294;28;20604;-80
2021/11/21 05:51:27;;;;;;;21.10;13.63;;;;;;;;;;5034784;28;20190;-80
2021/11/21 05:53:53;;;;;;;20.37;13.83;;;;;;;;;;5033995;28;20187;-81
2021/11/21 05:56:21;;;;;;;23.60;14.70;;;;;;;;;;5035353;28;20414;-81
2021/11/21 05:58:48;;;;;;;22.15;13.90;;;;;;;;;;5033997;28;20209;-80
2021/11/21 06:01:14;;;;;;;20.08;13.30;;;;;;;;;;5017211;28;20214;-80
2021/11/21 06:03:41;;;;;;;21.73;13.38;;;;;;;;;;5035225;28;20535;-80
2021/11/21 06:06:07;;;;;;;21.27;13.65;;;;;;;;;;5033719;28;20186;-80
2021/11/21 06:08:33;;;;;;;23.13;13.25;;;;;;;;;;5033921;28;20174;-80
2021/11/21 06:10:59;;;;;;;23.48;14.15;;;;;;;;;;5034647;28;20194;-80
2021/11/21 06:13:27;;;;;;;17.33;12.40;;;;;;;;;;5034891;28;20259;-80
2021/11/21 06:15:53;;;;;;;19.63;13.73;;;;;;;;;;5034768;28;20178;-79
2021/11/21 06:18:19;;;;;;;26.48;14.77;;;;;;;;;;5034765;28;20251;-80
2021/11/21 06:20:45;;;;;;;25.30;13.60;;;;;;;;;;5034299;28;20216;-80
2021/11/21 06:23:12;;;;;;;20.23;12.40;;;;;;;;;;5033437;28;20185;-81
2021/11/21 06:25:38;;;;;;;21.40;13.98;;;;;;;;;;5034767;28;20249;-80
2021/11/21 06:28:05;;;;;;;24.20;15.02;;;;;;;;;;5034752;28;20256;-79
2021/11/21 06:30:31;;;;;;;20.90;13.55;;;;;;;;;;5033001;28;20287;-79
2021/11/21 06:32:57;;;;;;;20.92;14.13;;;;;;;;;;5034714;28;20183;-79
2021/11/21 06:35:23;;;;;;;21.80;14.60;;;;;;;;;;5033436;28;20662;-81
2021/11/21 06:37:49;;;;;;;21.27;13.93;;;;;;;;;;5033029;28;20190;-80
2021/11/21 06:40:15;;;;;;;20.17;13.07;;;;;;;;;;5033929;28;20204;-80
2021/11/21 06:42:42;;;;;;;23.88;14.90;;;;;;;;;;5034384;28;20449;-80
2021/11/21 06:45:09;;;;;;;25.13;14.82;;;;;;;;;;5034298;28;20301;-81
2021/11/21 06:47:36;;;;;;;27.70;14.82;;;;;;;;;;5034220;28;20653;-80
2021/11/21 06:50:03;;;;;;;26.40;15.00;;;;;;;;;;5033783;28;20324;-80
2021/11/21 06:52:33;;;;;;;23.08;14.40;;;;;;;;;;5034114;28;20195;-81
2021/11/21 06:54:59;;;;;;;23.92;15.38;;;;;;;;;;5032958;28;20184;-80
2021/11/21 06:57:25;;;;;;;30.13;16.30;;;;;;;;;;5032717;28;20186;-80
2021/11/21 06:59:51;;;;;;;25.02;16.73;;;;;;;;;;5033568;28;20543;-80
2021/11/21 07:02:17;;;;;;;29.45;16.98;;;;;;;;;;5033970;28;20180;-80
2021/11/21 07:04:43;;;;;;;26.88;14.18;;;;;;;;;;5033684;28;20528;-81
2021/11/21 07:07:10;;;;;;;25.40;15.63;;;;;;;;;;5034029;28;20567;-81
2021/11/21 07:09:36;;;;;;;25.67;15.63;;;;;;;;;;5032360;28;20181;-80
2021/11/21 07:12:03;;;;;;;22.88;14.13;;;;;;;;;;5034024;28;20701;-80
2021/11/21 07:14:29;;;;;;;26.70;16.50;;;;;;;;;;5034019;28;20190;-81
2021/11/21 07:16:55;;;;;;;29.02;15.88;;;;;;;;;;5033848;28;20289;-80
2021/11/21 07:19:21;;;;;;;25.08;16.17;;;;;;;;;;5015904;28;20559;-80
2021/11/21 07:21:48;;;;;;;25.37;15.10;;;;;;;;;;5033518;28;20217;-81
2021/11/21 07:24:14;;;;;;;27.77;16.67;;;;;;;;;;5033601;28;20419;-80
2021/11/21 07:26:41;;;;;;;22.73;16.13;;;;;;;;;;5033691;28;20175;-80
2021/11/21 07:29:08;;;;;;;31.10;17.42;;;;;;;;;;5032303;28;20640;-80
2021/11/21 07:31:35;;;;;;;27.92;16.85;;;;;;;;;;5033089;28;20190;-79
2021/11/21 07:34:01;;;;;;;24.08;15.45;;;;;;;;;;5033463;28;20197;-81
2021/11/21 07:36:27;;;;;;;26.90;16.50;;;;;;;;;;5033501;28;20299;-81
2021/11/21 07:38:53;;;;;;;28.58;17.02;;;;;;;;;;5033520;28;20206;-80
2021/11/21 07:41:19;;;;;;;29.08;16.05;;;;;;;;;;5032913;28;20614;-81
2021/11/21 07:43:45;;;;;;;26.75;16.60;;;;;;;;;;5033396;28;20184;-80
2021/11/21 07:46:11;;;;;;;26.10;15.38;;;;;;;;;;5033304;28;20705;-80
2021/11/21 07:48:37;;;;;;;29.48;17.25;;;;;;;;;;5033191;28;20178;-80
2021/11/21 07:51:05;;;;;;;25.60;15.88;;;;;;;;;;5032872;28;20198;-80
2021/11/21 07:53:31;;;;;;;29.92;17.27;;;;;;;;;;5031780;28;20177;-80
2021/11/21 07:55:57;;;;;;;25.13;16.10;;;;;;;;;;5033109;28;20563;-80
2021/11/21 07:58:24;;;;;;;24.58;16.77;;;;;;;;;;5031702;28;20178;-80
2021/11/21 08:00:50;;;;;;;25.52;16.45;;;;;;;;;;5032760;28;20206;-81
2021/11/21 08:03:16;;;;;;;23.77;15.20;;;;;;;;;;5033265;28;20174;-81
2021/11/21 08:05:43;;;;;;;27.48;16.95;;;;;;;;;;5033048;28;20544;-80
2021/11/21 08:08:09;;;;;;;28.00;16.45;;;;;;;;;;5033115;28;20170;-80
2021/11/21 08:10:35;;;;;;;25.05;15.95;;;;;;;;;;5032484;28;20571;-79
2021/11/21 08:13:01;;;;;;;26.38;16.48;;;;;;;;;;5031779;28;20178;-79
2021/11/21 08:15:28;;;;;;;29.38;16.38;;;;;;;;;;5033769;28;20651;-80
2021/11/21 08:17:54;;;;;;;25.40;15.70;;;;;;;;;;5036999;28;20197;-79
2021/11/21 08:20:21;;;;;;;29.20;17.58;;;;;;;;;;5036584;28;20302;-79
2021/11/21 08:22:47;;;;;;;27.67;16.10;;;;;;;;;;5036816;28;20199;-78
2021/11/21 08:25:13;;;;;;;24.08;16.05;;;;;;;;;;5037008;28;20169;-80
2021/11/21 08:27:39;;;;;;;34.83;18.95;;;;;;;;;;5019281;28;20186;-79
2021/11/21 08:30:07;;;;;;;31.20;17.92;;;;;;;;;;5036423;28;20241;-81
2021/11/21 08:32:33;;;;;;;57.50;38.70;;;;;;;;;;5036931;28;20177;-81
2021/11/21 08:34:59;;;;;;;36.67;23.00;;;;;;;;;;5036852;28;20204;-79
2021/11/21 08:37:25;;;;;;;29.30;19.60;;;;;;;;;;5036934;28;20412;-80
2021/11/21 08:39:51;;;;;;;38.55;23.65;;;;;;;;;;5036423;28;20198;-81
2021/11/21 08:42:17;;;;;;;34.58;20.80;;;;;;;;;;5036495;28;20577;-80
2021/11/21 08:44:43;;;;;;;33.10;19.73;;;;;;;;;;5035056;28;20185;-81
2021/11/21 08:47:14;;;;;;;30.90;18.20;;;;;;;;;;5036431;28;20174;-83
2021/11/21 08:49:40;;;;;;;33.60;20.75;;;;;;;;;;5036145;28;20531;-82
2021/11/21 08:52:06;;;;;;;52.05;39.78;;;;;;;;;;5036389;28;20174;-81
2021/11/21 08:54:33;;;;;;;37.63;24.48;;;;;;;;;;5036489;28;20182;-81
2021/11/21 08:56:59;;;;;;;33.78;20.60;;;;;;;;;;5036247;28;20260;-81
2021/11/21 08:59:25;;;;;;;31.48;18.70;;;;;;;;;;5034746;28;20186;-81
2021/11/21 09:01:51;;;;;;;30.07;17.53;;;;;;;;;;5036201;28;20221;-81
2021/11/21 09:04:17;;;;;;;35.83;19.40;;;;;;;;;;5036501;28;20409;-79
2021/11/21 09:06:44;;;;;;;24.25;16.17;;;;;;;;;;5036203;28;20201;-81
2021/11/21 09:09:10;;;;;;;29.30;16.90;;;;;;;;;;5036051;28;20170;-82
2021/11/21 09:11:36;;;;;;;28.70;16.63;;;;;;;;;;5035932;28;20208;-82
2021/11/21 09:14:06;;;;;;;28.85;16.65;;;;;;;;;;5036204;28;20177;-82
2021/11/21 09:16:32;;;;;;;24.10;14.18;;;;;;;;;;5035980;28;20217;-80
2021/11/21 09:18:58;;;;;;;27.27;17.37;;;;;;;;;;5036324;28;20655;-80
2021/11/21 09:21:25;;;;;;;31.92;17.52;;;;;;;;;;5035803;28;20562;-82
2021/11/21 09:23:51;;;;;;;27.20;16.80;;;;;;;;;;5036142;28;20543;-81
2021/11/21 09:26:17;;;;;;;27.40;16.70;;;;;;;;;;5035968;28;20186;-81
2021/11/21 09:28:43;;;;;;;31.60;16.40;;;;;;;;;;5035723;28;20769;-79
2021/11/21 09:31:09;;;;;;;25.67;15.55;;;;;;;;;;5034088;28;20239;-81
2021/11/21 09:33:35;;;;;;;30.75;15.45;;;;;;;;;;5035572;28;20213;-80
2021/11/21 09:36:03;;;;;;;27.73;16.80;;;;;;;;;;5035642;28;20178;-81
2021/11/21 09:38:29;;;;;;;27.63;17.45;;;;;;;;;;5035652;28;20182;-84
2021/11/21 09:40:55;;;;;;;26.58;16.17;;;;;;;;;;5035121;28;20206;-84
2021/11/21 09:43:22;;;;;;;29.58;16.70;;;;;;;;;;5035522;28;20174;-84
2021/11/21 09:45:48;;;;;;;26.17;14.90;;;;;;;;;;5035468;28;20201;-82
2021/11/21 09:48:15;;;;;;;29.50;15.80;;;;;;;;;;5035450;28;20238;-83
2021/11/21 09:50:42;;;;;;;28.60;16.83;;;;;;;;;;5035115;28;20657;-83
2021/11/21 09:53:08;;;;;;;28.73;15.20;;;;;;;;;;5035333;28;20175;-82
2021/11/21 09:55:34;;;;;;;26.77;14.45;;;;;;;;;;5035299;28;20177;-82
2021/11/21 09:58:01;;;;;;;26.00;15.48;;;;;;;;;;5033933;28;20650;-85
2021/11/21 10:00:28;;;;;;;29.05;18.00;;;;;;;;;;5034996;28;20292;-83
2021/11/21 10:03:13;;;;;;;29.15;15.75;;;;;;;;;;5035113;28;20543;-82
2021/11/21 10:05:40;;;;;;;29.63;15.75;;;;;;;;;;5034862;28;20177;-82
2021/11/21 10:08:09;;;;;;;23.67;15.85;;;;;;;;;;5035230;28;20582;-82
2021/11/21 10:11:05;;;;;;;28.60;15.75;;;;;;;;;;5034880;28;20321;-83
2021/11/21 10:13:41;;;;;;;29.38;17.95;;;;;;;;;;5030438;28;20249;-83
2021/11/21 10:16:17;;;;;;;27.90;18.33;;;;;;;;;;5035042;28;20184;-84
2021/11/21 10:18:51;;;;;;;23.63;15.43;;;;;;;;;;5037537;28;20654;-83
2021/11/21 10:21:17;;;;;;;29.08;18.65;;;;;;;;;;5033380;28;20687;-82
2021/11/21 10:23:44;;;;;;;27.15;16.45;;;;;;;;;;5034923;28;20171;-82
2021/11/21 10:26:19;;;;;;;32.08;16.60;;;;;;;;;;5034829;28;20178;-84
2021/11/21 10:28:45;;;;;;;26.63;16.45;;;;;;;;;;5034969;28;20221;-83
2021/11/21 10:31:16;;;;;;;28.53;16.60;;;;;;;;;;5034250;28;20294;-81
2021/11/21 10:33:44;;;;;;;27.02;15.55;;;;;;;;;;5034568;28;20408;-83
2021/11/21 10:36:24;;;;;;;29.45;16.67;;;;;;;;;;5034714;28;20193;-81
2021/11/21 10:38:57;;;;;;;30.08;15.35;;;;;;;;;;5032702;28;20273;-83
2021/11/21 10:41:26;;;;;;;21.25;14.20;;;;;;;;;;5034017;28;20215;-84
2021/11/21 10:43:57;;;;;;;22.67;13.75;;;;;;;;;;5034294;28;20177;-81
2021/11/21 10:46:43;;;;;;;26.10;14.30;;;;;;;;;;5034296;28;20174;-79
2021/11/21 10:49:12;;;;;;;23.17;15.15;;;;;;;;;;5034365;28;20217;-80
2021/11/21 10:51:38;;;;;;;23.25;13.77;;;;;;;;;;5034319;28;20580;-81
2021/11/21 10:54:04;;;;;;;23.83;16.48;;;;;;;;;;5034498;28;20192;-82
2021/11/21 10:56:33;;;;;;;22.45;13.77;;;;;;;;;;5035093;28;20540;-81
2021/11/21 10:59:03;;;;;;;20.00;12.50;;;;;;;;;;5035142;28;20264;-81
2021/11/21 11:01:29;;;;;;;20.55;14.43;;;;;;;;;;5034167;28;20211;-81
2021/11/21 11:04:08;;;;;;;23.33;12.10;;;;;;;;;;5034037;28;20178;-82
2021/11/21 11:06:35;;;;;;;20.77;12.88;;;;;;;;;;5033907;28;20407;-82
2021/11/21 11:09:21;;;;;;;23.48;13.50;;;;;;;;;;5034003;28;20304;-82
2021/11/21 11:11:48;;;;;;;20.73;12.50;;;;;;;;;;5033614;28;20213;-83
2021/11/21 11:14:18;;;;;;;20.40;12.48;;;;;;;;;;5034101;28;20174;-80
2021/11/21 11:16:48;;;;;;;23.55;13.32;;;;;;;;;;5032396;28;20205;-80
2021/11/21 11:19:15;;;;;;;24.17;12.82;;;;;;;;;;5033420;28;20665;-80
2021/11/21 11:21:42;;;;;;;26.38;14.65;;;;;;;;;;5032155;28;20241;-81
2021/11/21 11:24:09;;;;;;;23.08;12.10;;;;;;;;;;5033216;28;20187;-82
2021/11/21 11:26:35;;;;;;;26.77;13.68;;;;;;;;;;5033086;28;20187;-83
2021/11/21 11:29:02;;;;;;;24.92;14.82;;;;;;;;;;5033498;28;20181;-79
2021/11/21 11:31:35;;;;;;;23.02;13.95;;;;;;;;;;5033346;28;20241;-81
2021/11/21 11:34:04;;;;;;;22.65;13.63;;;;;;;;;;5032446;28;20181;-81
2021/11/21 11:36:32;;;;;;;23.83;13.13;;;;;;;;;;5033543;28;20178;-80
2021/11/21 11:39:09;;;;;;;23.33;14.80;;;;;;;;;;5033442;28;20182;-81
2021/11/21 11:41:35;;;;;;;23.65;15.38;;;;;;;;;;5033265;28;20204;-79
2021/11/21 11:44:06;;;;;;;21.42;15.25;;;;;;;;;;5033379;28;20206;-84
2021/11/21 11:46:33;;;;;;;25.02;15.75;;;;;;;;;;5033292;28;20209;-84
2021/11/21 11:49:04;;;;;;;27.92;16.35;;;;;;;;;;5032905;28;20173;-81
2021/11/21 11:51:36;;;;;;;30.75;17.67;;;;;;;;;;5032178;28;20561;-80
2021/11/21 11:54:27;;;;;;;24.27;15.85;;;;;;;;;;5033120;28;20182;-81
2021/11/21 11:56:55;;;;;;;29.25;15.73;;;;;;;;;;5033056;28;20172;-82
2021/11/21 11:59:34;;;;;;;27.77;17.00;;;;;;;;;;5031541;28;20207;-84
2021/11/21 12:02:20;;;;;;;24.65;14.75;;;;;;;;;;5031789;28;20292;-81
2021/11/21 12:04:47;;;;;;;24.95;13.68;;;;;;;;;;5029268;28;20279;-83
2021/11/21 12:07:27;;;;;;;24.65;13.93;;;;;;;;;;5033197;28;20591;-83
2021/11/21 12:10:00;;;;;;;19.25;13.15;;;;;;;;;;5032556;28;20189;-81
2021/11/21 12:12:52;;;;;;;20.65;13.27;;;;;;;;;;5031630;28;20239;-81
2021/11/21 12:15:32;;;;;;;21.50;11.82;;;;;;;;;;5024634;28;20594;-82
2021/11/21 12:17:58;;;;;;;21.65;12.73;;;;;;;;;;5032809;28;20194;-79
2021/11/21 12:20:45;;;;;;;28.17;13.63;;;;;;;;;;5032264;28;20627;-80
2021/11/21 12:23:11;;;;;;;25.95;14.43;;;;;;;;;;5031462;28;20682;-82
2021/11/21 12:25:38;;;;;;;26.60;14.63;;;;;;;;;;5033001;28;20197;-80
2021/11/21 12:28:04;;;;;;;24.50;16.73;;;;;;;;;;5033164;28;20252;-83
2021/11/21 12:30:32;;;;;;;23.63;14.52;;;;;;;;;;5032418;28;20211;-82
2021/11/21 12:33:02;;;;;;;25.42;13.38;;;;;;;;;;5032907;28;20178;-81
2021/11/21 12:35:33;;;;;;;27.50;15.95;;;;;;;;;;5032804;28;20178;-79
2021/11/21 12:38:04;;;;;;;24.80;14.15;;;;;;;;;;5032838;28;20671;-80
2021/11/21 12:40:33;;;;;;;19.45;11.40;;;;;;;;;;5032287;28;20287;-81
2021/11/21 12:43:05;;;;;;;25.08;13.77;;;;;;;;;;5032728;28;20245;-82
2021/11/21 12:45:33;;;;;;;18.63;11.38;;;;;;;;;;5032685;28;20587;-81
2021/11/21 12:48:00;;;;;;;25.85;13.52;;;;;;;;;;5032915;28;20167;-82
2021/11/21 12:50:26;;;;;;;17.05;10.43;;;;;;;;;;5031102;28;20197;-80
2021/11/21 12:52:58;;;;;;;17.75;8.88;;;;;;;;;;5031195;28;20693;-82
2021/11/21 12:55:24;;;;;;;14.05;7.35;;;;;;;;;;5031372;28;20174;-81
2021/11/21 12:57:52;;;;;;;13.57;7.10;;;;;;;;;;5031279;28;20267;-79
2021/11/21 13:00:21;;;;;;;11.70;5.88;;;;;;;;;;5032128;28;20202;-81
2021/11/21 13:02:56;;;;;;;10.07;5.22;;;;;;;;;;5034065;28;20202;-82
2021/11/21 13:05:22;;;;;;;6.40;4.85;;;;;;;;;;5036158;28;20219;-81
2021/11/21 13:07:48;;;;;;;10.93;5.40;;;;;;;;;;5036155;28;20592;-79
2021/11/21 13:10:19;;;;;;;6.10;4.70;;;;;;;;;;5035692;28;20224;-83
2021/11/21 13:12:46;;;;;;;9.55;4.43;;;;;;;;;;5036087;28;20547;-81
2021/11/21 13:15:16;;;;;;;7.40;4.35;;;;;;;;;;5036049;28;20253;-79
2021/11/21 13:17:43;;;;;;;10.68;5.20;;;;;;;;;;5035838;28;20526;-80
2021/11/21 13:20:17;;;;;;;7.97;5.47;;;;;;;;;;5035581;28;20186;-82
2021/11/21 13:22:54;;;;;;;7.63;4.78;;;;;;;;;;5035886;28;20505;-81
2021/11/21 13:25:32;;;;;;;10.15;4.57;;;;;;;;;;5036055;28;20170;-82
2021/11/21 13:28:16;;;;;;;11.35;5.95;;;;;;;;;;5035822;28;20178;-82
2021/11/21 13:30:43;;;;;;;9.20;4.53;;;;;;;;;;5035342;28;20239;-82
2021/11/21 13:33:19;;;;;;;12.27;5.47;;;;;;;;;;5035755;28;20243;-80
2021/11/21 13:35:45;;;;;;;8.18;4.90;;;;;;;;;;5035760;28;20185;-78
2021/11/21 13:38:11;;;;;;;10.30;5.22;;;;;;;;;;5035806;28;20186;-80
2021/11/21 13:40:39;;;;;;;9.10;5.78;;;;;;;;;;5033725;28;20267;-80
2021/11/21 13:43:06;;;;;;;7.40;5.25;;;;;;;;;;5034147;28;20206;-81
2021/11/21 13:45:32;;;;;;;8.07;5.00;;;;;;;;;;5035420;28;20178;-81
2021/11/21 13:47:59;;;;;;;12.30;6.13;;;;;;;;;;5035515;28;20180;-81
2021/11/21 13:50:27;;;;;;;7.38;5.55;;;;;;;;;;5034938;28;20486;-81
2021/11/21 13:52:55;;;;;;;9.00;5.22;;;;;;;;;;5033875;28;20190;-82
2021/11/21 13:55:21;;;;;;;15.35;6.55;;;;;;;;;;5033805;28;20238;-80
2021/11/21 13:57:48;;;;;;;17.40;7.13;;;;;;;;;;5033779;28;20182;-79
2021/11/21 14:00:16;;;;;;;10.98;7.85;;;;;;;;;;5033471;28;20217;-81
2021/11/21 14:02:44;;;;;;;15.20;6.53;;;;;;;;;;5033822;28;20714;-82
2021/11/21 14:05:12;;;;;;;13.50;6.85;;;;;;;;;;5034933;28;20173;-80
2021/11/21 14:07:57;;;;;;;15.48;6.40;;;;;;;;;;5035106;28;20166;-81
2021/11/21 14:10:30;;;;;;;12.15;5.65;;;;;;;;;;5034925;28;20196;-81
2021/11/21 14:13:06;;;;;;;14.90;6.70;;;;;;;;;;5034769;28;20257;-81
2021/11/21 14:15:32;;;;;;;11.05;5.93;;;;;;;;;;5035153;28;20188;-79
2021/11/21 14:18:00;;;;;;;17.10;6.45;;;;;;;;;;5036158;28;20194;-79
2021/11/21 14:23:14;;;;;;;14.38;7.50;;;;;;;;;;5032918;28;20194;-81
2021/11/21 14:25:45;;;;;;;16.77;7.90;;;;;;;;;;5033020;28;20183;-80